createdAt,value
2018-05-23T00:00:15.895Z,16.70
2018-05-23T00:02:43.503Z,16.60
2018-05-23T00:05:11.908Z,16.60
2018-05-23T00:07:40.220Z,16.60
2018-05-23T00:10:07.787Z,16.60
2018-05-23T00:12:35.435Z,16.60
2018-05-23T00:15:02.984Z,16.60
2018-05-23T00:17:30.564Z,16.60
2018-05-23T00:19:58.108Z,16.60
2018-05-23T00:22:25.652Z,16.60
2018-05-23T00:24:53.219Z,16.60
2018-05-23T00:27:20.770Z,16.60
2018-05-23T00:29:49.123Z,16.50
2018-05-23T00:32:16.652Z,16.50
2018-05-23T00:34:44.211Z,16.50
2018-05-23T00:37:11.756Z,16.50
2018-05-23T00:39:39.330Z,16.50
2018-05-23T00:42:06.880Z,16.50
2018-05-23T00:44:34.418Z,16.50
2018-05-23T00:47:02.016Z,16.50
2018-05-23T00:49:29.571Z,16.50
2018-05-23T00:51:58.667Z,16.40
2018-05-23T00:54:26.206Z,16.40
2018-05-23T00:56:53.827Z,16.40
2018-05-23T00:59:21.450Z,16.40
2018-05-23T01:01:49.723Z,16.40
2018-05-23T01:04:17.264Z,16.40
2018-05-23T01:06:44.803Z,16.40
2018-05-23T01:09:12.352Z,16.40
2018-05-23T01:11:39.888Z,16.40
2018-05-23T01:14:08.208Z,16.40
2018-05-23T01:16:35.739Z,16.30
2018-05-23T01:19:03.302Z,16.30
2018-05-23T01:21:30.848Z,16.30
2018-05-23T01:23:58.411Z,16.30
2018-05-23T01:26:25.939Z,16.30
2018-05-23T01:28:53.467Z,16.30
2018-05-23T01:31:21.060Z,16.30
2018-05-23T01:33:49.407Z,16.30
2018-05-23T01:36:17.032Z,16.30
2018-05-23T01:38:44.695Z,16.30
2018-05-23T01:41:12.248Z,16.30
2018-05-23T01:43:39.858Z,16.30
2018-05-23T01:46:07.499Z,16.30
2018-05-23T01:48:47.058Z,16.30
2018-05-23T01:51:14.587Z,16.40
2018-05-23T01:53:42.127Z,16.30
2018-05-23T01:56:09.680Z,16.30
2018-05-23T01:58:37.243Z,16.30
2018-05-23T02:01:04.766Z,16.30
2018-05-23T02:03:33.096Z,16.30
2018-05-23T02:06:00.863Z,16.30
2018-05-23T02:08:28.477Z,16.30
2018-05-23T02:10:56.002Z,16.30
2018-05-23T02:13:24.319Z,16.30
2018-05-23T02:15:52.615Z,16.30
2018-05-23T02:18:20.175Z,16.30
2018-05-23T02:20:47.750Z,16.30
2018-05-23T02:23:15.288Z,16.30
2018-05-23T02:25:42.795Z,16.20
2018-05-23T02:28:10.367Z,16.20
2018-05-23T02:30:37.915Z,16.20
2018-05-23T02:33:05.467Z,16.20
2018-05-23T02:35:33.778Z,16.10
2018-05-23T02:38:02.231Z,16.10
2018-05-23T02:40:29.771Z,16.10
2018-05-23T02:42:57.315Z,16.10
2018-05-23T02:45:24.862Z,16.10
2018-05-23T02:47:52.429Z,16.10
2018-05-23T02:50:19.983Z,16.10
2018-05-23T02:52:47.516Z,16.10
2018-05-23T02:55:15.147Z,16.10
2018-05-23T02:57:42.707Z,16.10
2018-05-23T03:00:10.256Z,16.10
2018-05-23T03:02:37.827Z,16.10
2018-05-23T03:05:05.359Z,16.10
2018-05-23T03:07:32.888Z,16.10
2018-05-23T03:10:00.459Z,16.00
2018-05-23T03:12:28.014Z,16.00
2018-05-23T03:14:55.667Z,15.90
2018-05-23T03:17:23.226Z,15.90
2018-05-23T03:19:50.767Z,15.90
2018-05-23T03:22:18.318Z,15.90
2018-05-23T03:24:45.874Z,15.80
2018-05-23T03:27:14.171Z,15.80
2018-05-23T03:29:41.726Z,15.80
2018-05-23T03:32:09.268Z,15.80
2018-05-23T03:34:37.595Z,15.80
2018-05-23T03:37:05.118Z,15.80
2018-05-23T03:39:32.667Z,15.80
2018-05-23T03:42:00.219Z,15.90
2018-05-23T03:44:28.583Z,15.80
2018-05-23T03:46:56.959Z,15.90
2018-05-23T03:49:25.258Z,15.90
2018-05-23T03:51:52.932Z,15.90
2018-05-23T03:54:20.459Z,15.90
2018-05-23T03:56:48.775Z,15.90
2018-05-23T03:59:16.300Z,15.90
2018-05-23T04:01:56.390Z,16.00
2018-05-23T04:04:35.731Z,16.00
2018-05-23T04:07:29.682Z,16.00
2018-05-23T04:09:57.219Z,16.00
2018-05-23T04:12:25.530Z,16.00
2018-05-23T04:14:53.072Z,16.00
2018-05-23T04:17:20.637Z,16.10
2018-05-23T04:19:48.157Z,16.10
2018-05-23T04:22:15.688Z,16.00
2018-05-23T04:24:43.256Z,16.10
2018-05-23T04:27:10.787Z,16.10
2018-05-23T04:29:38.325Z,16.10
2018-05-23T04:32:05.880Z,16.10
2018-05-23T04:34:33.415Z,16.10
2018-05-23T04:37:01.739Z,16.10
2018-05-23T04:39:29.303Z,16.10
2018-05-23T04:41:56.839Z,16.10
2018-05-23T04:44:24.546Z,16.10
2018-05-23T04:46:52.799Z,16.10
2018-05-23T04:49:20.379Z,16.10
2018-05-23T04:51:48.001Z,16.10
2018-05-23T04:54:15.551Z,16.20
2018-05-23T04:56:43.141Z,16.10
2018-05-23T04:59:10.810Z,16.20
2018-05-23T05:01:38.506Z,16.10
2018-05-23T05:04:06.032Z,16.20
2018-05-23T05:06:33.589Z,16.20
2018-05-23T05:09:02.683Z,16.20
2018-05-23T05:11:30.302Z,16.20
2018-05-23T05:13:57.986Z,16.30
2018-05-23T05:16:25.522Z,16.30
2018-05-23T05:18:53.042Z,16.30
2018-05-23T05:21:20.611Z,16.30
2018-05-23T05:23:48.911Z,16.30
2018-05-23T05:26:16.479Z,16.20
2018-05-23T05:28:43.985Z,16.30
2018-05-23T05:31:13.047Z,16.30
2018-05-23T05:33:40.606Z,16.30
2018-05-23T05:36:08.151Z,16.30
2018-05-23T05:38:35.679Z,16.30
2018-05-23T05:41:03.972Z,16.30
2018-05-23T05:43:31.511Z,16.30
2018-05-23T05:45:59.848Z,16.30
2018-05-23T05:48:27.395Z,16.30
2018-05-23T05:50:55.131Z,16.30
2018-05-23T05:53:22.699Z,16.40
2018-05-23T05:55:50.388Z,16.30
2018-05-23T05:58:17.920Z,16.30
2018-05-23T06:00:45.480Z,16.40
2018-05-23T06:03:13.018Z,16.40
2018-05-23T06:05:40.655Z,16.40
2018-05-23T06:08:09.059Z,16.40
2018-05-23T06:10:36.643Z,16.40
2018-05-23T06:13:04.195Z,16.40
2018-05-23T06:15:31.938Z,16.40
2018-05-23T06:17:59.474Z,16.50
2018-05-23T06:20:27.025Z,16.50
2018-05-23T06:22:56.195Z,16.50
2018-05-23T06:25:23.740Z,16.50
2018-05-23T06:27:51.406Z,16.50
2018-05-23T06:30:19.000Z,16.50
2018-05-23T06:32:46.591Z,16.60
2018-05-23T06:35:14.139Z,16.60
2018-05-23T06:37:42.481Z,16.60
2018-05-23T06:40:09.987Z,16.60
2018-05-23T06:42:37.542Z,16.70
2018-05-23T06:45:05.076Z,16.70
2018-05-23T06:47:32.602Z,16.70
2018-05-23T06:50:00.293Z,16.70
2018-05-23T06:52:27.862Z,16.70
2018-05-23T06:54:55.427Z,16.80
2018-05-23T06:57:23.768Z,16.80
2018-05-23T06:59:51.386Z,16.80
2018-05-23T07:02:18.977Z,16.90
2018-05-23T07:04:46.526Z,16.90
2018-05-23T07:07:14.267Z,16.90
2018-05-23T07:09:41.811Z,16.90
2018-05-23T07:12:09.427Z,17.00
2018-05-23T07:14:37.055Z,17.00
2018-05-23T07:17:04.737Z,17.00
2018-05-23T07:19:32.359Z,17.00
2018-05-23T07:21:59.912Z,17.10
2018-05-23T07:24:28.263Z,17.10
2018-05-23T07:26:57.356Z,17.10
2018-05-23T07:29:24.895Z,17.10
2018-05-23T07:31:52.444Z,17.10
2018-05-23T07:34:20.017Z,17.20
2018-05-23T07:36:47.567Z,17.20
2018-05-23T07:39:15.123Z,17.20
2018-05-23T07:41:42.671Z,17.30
2018-05-23T07:44:10.235Z,17.30
2018-05-23T07:46:37.778Z,17.40
2018-05-23T07:49:05.339Z,17.50
2018-05-23T07:51:32.879Z,17.50
2018-05-23T07:54:00.440Z,17.60
2018-05-23T07:56:27.988Z,17.70
2018-05-23T07:58:55.555Z,17.60
2018-05-23T08:01:23.079Z,17.60
2018-05-23T08:03:50.687Z,17.60
2018-05-23T08:06:18.243Z,17.60
2018-05-23T08:08:45.785Z,17.60
2018-05-23T08:11:14.123Z,17.60
2018-05-23T08:13:41.679Z,17.60
2018-05-23T08:16:09.231Z,17.60
2018-05-23T08:18:36.780Z,17.60
2018-05-23T08:21:04.394Z,17.60
2018-05-23T08:23:32.730Z,17.60
2018-05-23T08:26:00.288Z,17.60
2018-05-23T08:28:27.838Z,17.60
2018-05-23T08:30:55.384Z,17.60
2018-05-23T08:33:22.903Z,17.60
2018-05-23T08:35:50.504Z,17.60
2018-05-23T08:38:18.064Z,17.60
2018-05-23T08:40:45.639Z,17.60
2018-05-23T08:43:13.195Z,17.60
2018-05-23T08:45:40.732Z,17.60
2018-05-23T08:48:08.327Z,17.70
2018-05-23T08:50:35.900Z,17.70
2018-05-23T08:53:04.307Z,17.70
2018-05-23T08:55:31.870Z,17.70
2018-05-23T08:57:59.571Z,17.80
2018-05-23T09:00:27.283Z,17.80
2018-05-23T09:02:55.059Z,17.80
2018-05-23T09:05:22.611Z,17.80
2018-05-23T09:07:50.149Z,17.80
2018-05-23T09:10:18.467Z,17.90
2018-05-23T09:12:46.009Z,17.90
2018-05-23T09:15:13.563Z,17.90
2018-05-23T09:17:41.139Z,17.90
2018-05-23T09:20:08.685Z,17.90
2018-05-23T09:22:36.239Z,17.90
2018-05-23T09:25:03.795Z,17.90
2018-05-23T09:27:31.412Z,18.00
2018-05-23T09:29:58.972Z,18.00
2018-05-23T09:32:26.523Z,18.00
2018-05-23T09:34:54.131Z,18.00
2018-05-23T09:37:21.680Z,18.00
2018-05-23T09:39:49.973Z,18.10
2018-05-23T09:42:17.538Z,18.10
2018-05-23T09:44:45.100Z,18.10
2018-05-23T09:47:12.752Z,18.00
2018-05-23T09:49:40.420Z,18.10
2018-05-23T09:52:08.003Z,18.10
2018-05-23T09:54:35.582Z,18.00
2018-05-23T09:57:03.116Z,18.10
2018-05-23T09:59:30.685Z,18.10
2018-05-23T10:01:58.244Z,18.10
2018-05-23T10:04:25.800Z,18.00
2018-05-23T10:06:53.351Z,18.10
2018-05-23T10:09:21.004Z,18.10
2018-05-23T10:11:48.531Z,18.10
2018-05-23T10:14:16.212Z,18.00
2018-05-23T10:16:43.845Z,18.00
2018-05-23T10:19:12.201Z,18.10
2018-05-23T10:21:41.236Z,18.10
2018-05-23T10:24:08.860Z,18.10
2018-05-23T10:26:36.432Z,18.10
2018-05-23T10:29:04.724Z,18.10
2018-05-23T10:31:33.208Z,18.10
2018-05-23T10:34:00.768Z,18.10
2018-05-23T10:36:28.351Z,18.10
2018-05-23T10:38:55.902Z,18.10
2018-05-23T10:41:23.468Z,18.10
2018-05-23T10:43:51.026Z,18.10
2018-05-23T10:46:18.665Z,18.10
2018-05-23T10:48:46.142Z,18.10
2018-05-23T10:51:13.791Z,18.10
2018-05-23T10:53:41.327Z,18.10
2018-05-23T10:56:08.967Z,18.10
2018-05-23T10:58:36.599Z,18.20
2018-05-23T11:01:04.171Z,18.20
2018-05-23T11:03:31.771Z,18.30
2018-05-23T11:05:59.354Z,18.30
2018-05-23T11:08:26.916Z,18.30
2018-05-23T11:10:55.485Z,18.30
2018-05-23T11:13:23.029Z,18.30
2018-05-23T11:15:50.653Z,18.30
2018-05-23T11:18:19.905Z,18.40
2018-05-23T11:20:47.463Z,18.40
2018-05-23T11:23:14.999Z,18.40
2018-05-23T11:25:42.579Z,18.40
2018-05-23T11:28:10.135Z,18.40
2018-05-23T11:30:37.711Z,18.40
2018-05-23T11:33:05.271Z,18.30
2018-05-23T11:35:33.619Z,17.70
2018-05-23T11:38:01.143Z,18.30
2018-05-23T11:40:28.705Z,18.40
2018-05-23T11:42:56.282Z,18.40
2018-05-23T11:45:24.591Z,18.30
2018-05-23T11:47:52.142Z,18.30
2018-05-23T11:50:19.707Z,18.30
2018-05-23T11:52:47.267Z,18.30
2018-05-23T11:55:15.004Z,18.30
2018-05-23T11:57:42.552Z,18.30
2018-05-23T12:00:10.902Z,18.30
2018-05-23T12:02:38.485Z,18.30
2018-05-23T12:05:06.799Z,18.40
2018-05-23T12:07:34.342Z,18.40
2018-05-23T12:10:01.911Z,18.40
2018-05-23T12:12:29.455Z,18.40
2018-05-23T12:14:57.011Z,18.50
2018-05-23T12:17:24.256Z,18.50
2018-05-23T12:19:52.572Z,18.60
2018-05-23T12:22:20.167Z,18.60
2018-05-23T12:24:47.720Z,18.60
2018-05-23T12:27:15.279Z,18.60
2018-05-23T12:29:42.815Z,18.70
2018-05-23T12:32:10.404Z,18.70
2018-05-23T12:34:38.051Z,18.80
2018-05-23T12:37:05.617Z,18.80
2018-05-23T12:39:33.268Z,18.90
2018-05-23T12:42:00.816Z,18.90
2018-05-23T12:44:28.403Z,19.00
2018-05-23T12:46:56.064Z,19.00
2018-05-23T12:49:23.637Z,19.20
2018-05-23T12:51:51.934Z,19.20
2018-05-23T12:54:19.494Z,19.20
2018-05-23T12:56:47.060Z,19.20
2018-05-23T12:59:14.626Z,19.10
2018-05-23T13:01:42.243Z,19.20
2018-05-23T13:04:10.567Z,19.10
2018-05-23T13:06:38.134Z,19.10
2018-05-23T13:09:05.679Z,19.10
2018-05-23T13:11:33.412Z,19.10
2018-05-23T13:14:01.063Z,19.30
2018-05-23T13:16:32.538Z,19.20
2018-05-23T13:19:00.188Z,19.20
2018-05-23T13:21:28.521Z,19.20
2018-05-23T13:23:56.789Z,19.20
2018-05-23T13:26:24.377Z,19.20
2018-05-23T13:28:52.900Z,19.40
2018-05-23T13:31:20.517Z,19.40
2018-05-23T13:33:48.100Z,19.50
2018-05-23T13:36:16.446Z,19.50
2018-05-23T13:38:44.206Z,19.50
2018-05-23T13:41:11.752Z,19.50
2018-05-23T13:43:39.297Z,19.50
2018-05-23T13:46:06.852Z,19.50
2018-05-23T13:48:34.436Z,19.50
2018-05-23T13:51:01.975Z,19.50
2018-05-23T13:53:29.584Z,19.70
2018-05-23T13:55:57.968Z,19.60
2018-05-23T13:58:25.517Z,19.60
2018-05-23T14:00:53.854Z,19.50
2018-05-23T14:03:21.582Z,19.40
2018-05-23T14:05:49.259Z,19.60
2018-05-23T14:08:16.816Z,19.50
2018-05-23T14:10:44.483Z,19.40
2018-05-23T14:13:12.120Z,19.30
2018-05-23T14:15:39.979Z,19.20
2018-05-23T14:18:07.557Z,19.20
2018-05-23T14:20:35.101Z,19.20
2018-05-23T14:23:02.684Z,19.20
2018-05-23T14:25:30.384Z,19.30
2018-05-23T14:27:58.063Z,19.50
2018-05-23T14:30:26.442Z,19.50
2018-05-23T14:32:54.802Z,19.50
2018-05-23T14:35:22.362Z,19.50
2018-05-23T14:37:49.923Z,19.60
2018-05-23T14:40:18.311Z,19.50
2018-05-23T14:42:45.856Z,19.40
2018-05-23T14:45:13.436Z,19.50
2018-05-23T14:47:41.859Z,19.50
2018-05-23T14:50:09.653Z,19.50
2018-05-23T14:52:37.164Z,19.80
2018-05-23T14:55:04.821Z,19.90
2018-05-23T14:57:32.367Z,20.00
2018-05-23T14:59:59.944Z,20.00
2018-05-23T15:02:27.490Z,20.10
2018-05-23T15:04:55.259Z,20.00
2018-05-23T15:07:22.784Z,19.90
2018-05-23T15:09:50.375Z,20.10
2018-05-23T15:12:17.944Z,20.30
2018-05-23T15:14:45.506Z,20.10
2018-05-23T15:17:13.089Z,20.10
2018-05-23T15:19:40.723Z,20.00
2018-05-23T15:22:08.233Z,20.00
2018-05-23T15:24:36.561Z,19.80
2018-05-23T15:27:04.130Z,19.80
2018-05-23T15:29:33.657Z,20.00
2018-05-23T15:32:01.215Z,20.10
2018-05-23T15:34:28.799Z,20.00
2018-05-23T15:36:56.375Z,19.90
2018-05-23T15:39:24.704Z,19.80
2018-05-23T15:41:52.299Z,19.80
2018-05-23T15:44:20.728Z,19.70
2018-05-23T15:46:48.274Z,19.80
2018-05-23T15:49:16.645Z,19.80
2018-05-23T15:51:44.311Z,19.80
2018-05-23T15:54:11.846Z,19.80
2018-05-23T15:56:39.441Z,19.80
2018-05-23T15:59:06.995Z,19.80
2018-05-23T16:01:34.560Z,19.80
2018-05-23T16:04:02.285Z,19.80
2018-05-23T16:06:29.828Z,19.70
2018-05-23T16:08:58.135Z,19.60
2018-05-23T16:11:25.882Z,19.60
2018-05-23T16:13:53.437Z,19.60
2018-05-23T16:16:21.820Z,19.50
2018-05-23T16:18:49.374Z,19.50
2018-05-23T16:21:16.961Z,19.50
2018-05-23T16:23:44.509Z,19.50
2018-05-23T16:26:12.104Z,19.50
2018-05-23T16:28:39.658Z,19.50
2018-05-23T16:31:07.199Z,19.50
2018-05-23T16:33:34.782Z,19.50
2018-05-23T16:36:02.417Z,19.40
2018-05-23T16:38:29.967Z,19.40
2018-05-23T16:40:57.600Z,19.40
2018-05-23T16:43:25.938Z,19.40
2018-05-23T16:45:53.480Z,19.40
2018-05-23T16:48:21.062Z,19.50
2018-05-23T16:50:48.612Z,19.50
2018-05-23T16:53:16.199Z,19.40
2018-05-23T16:55:44.520Z,19.40
2018-05-23T16:58:12.129Z,19.40
2018-05-23T17:00:39.668Z,19.50
2018-05-23T17:03:07.271Z,19.50
2018-05-23T17:05:34.837Z,19.50
2018-05-23T17:08:02.568Z,19.40
2018-05-23T17:10:30.142Z,19.50
2018-05-23T17:12:58.624Z,19.30
2018-05-23T17:15:27.112Z,19.30
2018-05-23T17:17:54.704Z,19.30
2018-05-23T17:20:22.337Z,19.20
2018-05-23T17:22:50.657Z,19.30
2018-05-23T17:25:18.221Z,19.30
2018-05-23T17:27:45.817Z,19.40
2018-05-23T17:30:14.142Z,19.40
2018-05-23T17:32:41.743Z,19.30
2018-05-23T17:35:09.290Z,19.30
2018-05-23T17:37:36.933Z,19.30
2018-05-23T17:40:04.622Z,19.30
2018-05-23T17:42:32.179Z,19.30
2018-05-23T17:44:59.828Z,19.20
2018-05-23T17:47:27.383Z,19.20
2018-05-23T17:49:54.997Z,19.20
2018-05-23T17:52:22.562Z,19.20
2018-05-23T17:54:50.145Z,19.10
2018-05-23T17:57:17.687Z,19.10
2018-05-23T17:59:45.249Z,19.10
2018-05-23T18:02:13.636Z,19.10
2018-05-23T18:04:41.211Z,19.20
2018-05-23T18:07:08.806Z,19.10
2018-05-23T18:09:37.227Z,19.10
2018-05-23T18:12:04.884Z,19.10
2018-05-23T18:14:32.424Z,19.10
2018-05-23T18:16:59.980Z,19.10
2018-05-23T18:19:27.596Z,19.10
2018-05-23T18:21:55.162Z,19.10
2018-05-23T18:24:22.706Z,19.00
2018-05-23T18:26:51.144Z,19.10
2018-05-23T18:29:18.733Z,19.00
2018-05-23T18:31:46.369Z,19.00
2018-05-23T18:34:14.033Z,19.00
2018-05-23T18:36:41.604Z,18.90
2018-05-23T18:39:09.195Z,18.90
2018-05-23T18:41:36.798Z,18.90
2018-05-23T18:44:04.384Z,18.90
2018-05-23T18:46:31.954Z,18.80
2018-05-23T18:48:59.558Z,18.90
2018-05-23T18:51:27.951Z,18.90
2018-05-23T18:53:55.601Z,18.90
2018-05-23T18:56:24.020Z,18.80
2018-05-23T18:58:51.568Z,18.80
2018-05-23T19:01:19.299Z,18.80
2018-05-23T19:03:47.795Z,18.80
2018-05-23T19:06:15.344Z,18.80
2018-05-23T19:08:43.066Z,18.80
2018-05-23T19:11:10.647Z,18.80
2018-05-23T19:13:38.216Z,18.80
2018-05-23T19:16:06.666Z,18.80
2018-05-23T19:18:35.197Z,18.80
2018-05-23T19:21:02.868Z,18.70
2018-05-23T19:23:30.522Z,18.70
2018-05-23T19:25:58.089Z,18.70
2018-05-23T19:28:25.835Z,18.70
2018-05-23T19:30:53.396Z,18.70
2018-05-23T19:33:21.051Z,18.70
2018-05-23T19:35:49.590Z,18.60
2018-05-23T19:38:17.143Z,18.60
2018-05-23T19:40:44.717Z,18.60
2018-05-23T19:43:12.326Z,18.60
2018-05-23T19:45:39.987Z,18.60
2018-05-23T19:48:07.584Z,18.60
2018-05-23T19:50:35.215Z,18.60
2018-05-23T19:53:02.784Z,18.50
2018-05-23T19:55:30.333Z,18.50
2018-05-23T19:57:57.987Z,18.50
2018-05-23T20:00:25.542Z,18.50
2018-05-23T20:02:53.074Z,18.50
2018-05-23T20:05:21.562Z,18.40
2018-05-23T20:07:49.918Z,18.40
2018-05-23T20:10:17.612Z,18.40
2018-05-23T20:12:45.202Z,18.40
2018-05-23T20:15:12.862Z,18.40
2018-05-23T20:17:40.457Z,18.40
2018-05-23T20:20:08.203Z,18.30
2018-05-23T20:22:35.764Z,18.30
2018-05-23T20:25:03.349Z,18.30
2018-05-23T20:27:31.769Z,18.20
2018-05-23T20:29:59.452Z,18.20
2018-05-23T20:32:27.024Z,18.20
2018-05-23T20:34:54.624Z,18.20
2018-05-23T20:37:22.964Z,18.10
2018-05-23T20:39:50.565Z,18.10
2018-05-23T20:42:18.151Z,18.00
2018-05-23T20:44:45.793Z,18.00
2018-05-23T20:47:13.375Z,17.90
2018-05-23T20:49:40.939Z,17.90
2018-05-23T20:52:08.557Z,17.80
2018-05-23T20:54:36.892Z,17.80
2018-05-23T20:57:04.473Z,17.80
2018-05-23T20:59:32.840Z,17.70
2018-05-23T21:02:00.412Z,17.70
2018-05-23T21:04:28.818Z,17.60
2018-05-23T21:06:56.396Z,17.60
2018-05-23T21:09:23.959Z,17.60
2018-05-23T21:11:51.562Z,17.50
2018-05-23T21:14:19.096Z,17.50
2018-05-23T21:16:46.643Z,17.50
2018-05-23T21:19:14.228Z,17.40
2018-05-23T21:21:41.800Z,17.40
2018-05-23T21:24:09.367Z,17.40
2018-05-23T21:26:37.829Z,17.30
2018-05-23T21:29:06.368Z,17.30
2018-05-23T21:31:34.049Z,17.30
2018-05-23T21:34:01.624Z,17.20
2018-05-23T21:36:29.168Z,17.20
2018-05-23T21:38:56.759Z,17.20
2018-05-23T21:41:24.360Z,17.10
2018-05-23T21:43:51.912Z,17.10
2018-05-23T21:46:19.487Z,17.00
2018-05-23T21:48:47.219Z,17.00
2018-05-23T21:51:15.595Z,16.90
2018-05-23T21:53:43.219Z,16.90
2018-05-23T21:56:10.796Z,16.90
2018-05-23T21:58:39.296Z,16.80
2018-05-23T22:01:06.906Z,16.80
2018-05-23T22:03:34.515Z,16.80
2018-05-23T22:06:02.120Z,16.80
2018-05-23T22:08:29.700Z,16.80
2018-05-23T22:10:57.445Z,16.70
2018-05-23T22:13:25.038Z,16.70
2018-05-23T22:15:53.329Z,16.70
2018-05-23T22:18:21.708Z,16.60
2018-05-23T22:20:49.398Z,16.60
2018-05-23T22:23:16.956Z,16.60
2018-05-23T22:25:44.620Z,16.60
2018-05-23T22:28:12.285Z,16.50
2018-05-23T22:30:39.891Z,16.50
2018-05-23T22:33:07.399Z,16.50
2018-05-23T22:35:34.962Z,16.50
2018-05-23T22:38:02.644Z,16.40
2018-05-23T22:40:30.976Z,16.30
2018-05-23T22:42:58.541Z,16.30
2018-05-23T22:45:26.199Z,16.30
2018-05-23T22:47:53.755Z,16.30
2018-05-23T22:50:21.368Z,16.20
2018-05-23T22:52:49.085Z,16.20
2018-05-23T22:55:16.645Z,16.10
2018-05-23T22:57:44.227Z,16.10
2018-05-23T23:00:12.664Z,16.10
2018-05-23T23:02:40.348Z,16.10
2018-05-23T23:05:07.911Z,16.00
2018-05-23T23:07:35.489Z,16.00
2018-05-23T23:10:03.239Z,16.00
2018-05-23T23:12:30.871Z,16.00
2018-05-23T23:14:58.438Z,16.00
2018-05-23T23:17:26.100Z,15.90
2018-05-23T23:19:53.739Z,15.90
2018-05-23T23:22:34.129Z,15.90
2018-05-23T23:25:01.768Z,15.90
2018-05-23T23:27:30.107Z,15.80
2018-05-23T23:29:57.665Z,15.80
2018-05-23T23:32:26.007Z,15.70
2018-05-23T23:34:53.651Z,15.70
2018-05-23T23:37:21.215Z,15.70
2018-05-23T23:39:48.863Z,15.70
2018-05-23T23:42:16.444Z,15.70
2018-05-23T23:44:44.028Z,15.70
2018-05-23T23:47:11.543Z,15.70
2018-05-23T23:49:39.099Z,15.70
2018-05-23T23:52:06.655Z,15.70
2018-05-23T23:54:34.251Z,15.80
2018-05-23T23:57:02.520Z,15.80
2018-05-23T23:59:30.084Z,15.80
